Terminal Aerodrome Forecast
Issued by NWS Bismarck, ND

Home | Current Version | Previous Version | Graphics & Text | Print | Product List | Glossary On
Versions: 1 2 3 4 5 6 7 8 9 10 11 12 13 14 15 16 17 18 19 20 21 22 23
000
FTUS43 KBIS 110500
TAFBIS
TAF
KBIS 110528Z 1106/1206 VRB02KT P6SM SKC
     FM110900 30004KT P6SM FEW050
     FM111400 36007KT P6SM SCT130
     FM111800 02010KT P6SM SCT110=

USA.gov is the U.S. government's official web portal to all federal, state and local government web resources and services.